sensor_id;sensor_type;location;lat;lon;timestamp;P1;durP1;ratioP1;P2;durP2;ratioP2
80421;SDS011;69763;50.182;9.144;2023-08-31T00:02:16;5.85;;;3.10;;
80421;SDS011;69763;50.182;9.144;2023-08-31T00:04:42;7.55;;;4.22;;
80421;SDS011;69763;50.182;9.144;2023-08-31T00:07:08;5.85;;;3.00;;
80421;SDS011;69763;50.182;9.144;2023-08-31T00:09:33;7.20;;;3.22;;
80421;SDS011;69763;50.182;9.144;2023-08-31T00:12:00;6.45;;;3.30;;
80421;SDS011;69763;50.182;9.144;2023-08-31T00:14:26;7.18;;;3.42;;
80421;SDS011;69763;50.182;9.144;2023-08-31T00:16:51;7.68;;;4.05;;
80421;SDS011;69763;50.182;9.144;2023-08-31T00:19:17;8.52;;;3.97;;
80421;SDS011;69763;50.182;9.144;2023-08-31T00:21:42;6.15;;;3.83;;
80421;SDS011;69763;50.182;9.144;2023-08-31T00:24:08;7.85;;;5.05;;
80421;SDS011;69763;50.182;9.144;2023-08-31T00:26:33;7.00;;;4.60;;
80421;SDS011;69763;50.182;9.144;2023-08-31T00:29:00;10.75;;;5.20;;
80421;SDS011;69763;50.182;9.144;2023-08-31T00:31:25;13.35;;;5.13;;
80421;SDS011;69763;50.182;9.144;2023-08-31T00:33:51;14.07;;;5.22;;
80421;SDS011;69763;50.182;9.144;2023-08-31T00:36:16;10.40;;;5.13;;
80421;SDS011;69763;50.182;9.144;2023-08-31T00:38:41;11.85;;;5.63;;
80421;SDS011;69763;50.182;9.144;2023-08-31T00:41:07;10.15;;;5.25;;
80421;SDS011;69763;50.182;9.144;2023-08-31T00:43:32;9.65;;;5.03;;
80421;SDS011;69763;50.182;9.144;2023-08-31T00:45:59;7.20;;;4.35;;
80421;SDS011;69763;50.182;9.144;2023-08-31T00:48:24;10.73;;;5.13;;
80421;SDS011;69763;50.182;9.144;2023-08-31T00:50:50;11.75;;;5.72;;
80421;SDS011;69763;50.182;9.144;2023-08-31T00:53:16;10.95;;;5.25;;
80421;SDS011;69763;50.182;9.144;2023-08-31T00:55:42;11.80;;;5.82;;
80421;SDS011;69763;50.182;9.144;2023-08-31T00:58:09;10.88;;;5.97;;
80421;SDS011;69763;50.182;9.144;2023-08-31T01:00:39;13.95;;;6.25;;
80421;SDS011;69763;50.182;9.144;2023-08-31T01:03:12;10.93;;;6.45;;
80421;SDS011;69763;50.182;9.144;2023-08-31T01:05:41;14.57;;;6.32;;
80421;SDS011;69763;50.182;9.144;2023-08-31T01:08:14;13.27;;;5.90;;
80421;SDS011;69763;50.182;9.144;2023-08-31T01:10:48;10.98;;;6.00;;
80421;SDS011;69763;50.182;9.144;2023-08-31T01:13:21;11.77;;;6.30;;
80421;SDS011;69763;50.182;9.144;2023-08-31T01:15:50;11.40;;;5.53;;
80421;SDS011;69763;50.182;9.144;2023-08-31T01:18:21;8.25;;;5.40;;
80421;SDS011;69763;50.182;9.144;2023-08-31T01:20:49;10.15;;;5.72;;
80421;SDS011;69763;50.182;9.144;2023-08-31T01:25:48;10.57;;;5.25;;
80421;SDS011;69763;50.182;9.144;2023-08-31T01:28:14;9.90;;;5.53;;
80421;SDS011;69763;50.182;9.144;2023-08-31T01:30:40;11.40;;;5.50;;
80421;SDS011;69763;50.182;9.144;2023-08-31T01:33:05;11.65;;;5.70;;
80421;SDS011;69763;50.182;9.144;2023-08-31T01:35:32;12.68;;;6.20;;
80421;SDS011;69763;50.182;9.144;2023-08-31T01:40:31;14.60;;;5.75;;
80421;SDS011;69763;50.182;9.144;2023-08-31T01:43:04;14.45;;;5.63;;
80421;SDS011;69763;50.182;9.144;2023-08-31T01:45:31;13.18;;;6.65;;
80421;SDS011;69763;50.182;9.144;2023-08-31T01:47:58;12.73;;;6.38;;
80421;SDS011;69763;50.182;9.144;2023-08-31T01:50:23;12.30;;;6.18;;
80421;SDS011;69763;50.182;9.144;2023-08-31T01:52:49;12.43;;;6.78;;
80421;SDS011;69763;50.182;9.144;2023-08-31T01:55:14;14.90;;;7.38;;
80421;SDS011;69763;50.182;9.144;2023-08-31T01:57:39;14.70;;;6.68;;
80421;SDS011;69763;50.182;9.144;2023-08-31T02:00:07;14.20;;;7.10;;
80421;SDS011;69763;50.182;9.144;2023-08-31T02:02:33;11.90;;;6.38;;
80421;SDS011;69763;50.182;9.144;2023-08-31T02:04:58;11.75;;;6.45;;
80421;SDS011;69763;50.182;9.144;2023-08-31T02:07:24;17.83;;;8.45;;
80421;SDS011;69763;50.182;9.144;2023-08-31T02:09:49;14.25;;;6.57;;
80421;SDS011;69763;50.182;9.144;2023-08-31T02:12:14;14.15;;;6.88;;
80421;SDS011;69763;50.182;9.144;2023-08-31T02:14:40;13.60;;;6.53;;
80421;SDS011;69763;50.182;9.144;2023-08-31T02:17:06;13.25;;;6.75;;
80421;SDS011;69763;50.182;9.144;2023-08-31T02:19:32;17.42;;;6.75;;
80421;SDS011;69763;50.182;9.144;2023-08-31T02:21:57;13.52;;;6.57;;
80421;SDS011;69763;50.182;9.144;2023-08-31T02:24:22;11.98;;;6.22;;
80421;SDS011;69763;50.182;9.144;2023-08-31T02:26:48;14.15;;;6.97;;
80421;SDS011;69763;50.182;9.144;2023-08-31T02:29:13;11.48;;;6.75;;
80421;SDS011;69763;50.182;9.144;2023-08-31T02:31:39;11.30;;;6.35;;
80421;SDS011;69763;50.182;9.144;2023-08-31T02:34:05;9.38;;;6.00;;
80421;SDS011;69763;50.182;9.144;2023-08-31T02:36:31;17.20;;;6.13;;
80421;SDS011;69763;50.182;9.144;2023-08-31T02:38:56;11.77;;;5.72;;
80421;SDS011;69763;50.182;9.144;2023-08-31T02:41:22;10.48;;;5.88;;
80421;SDS011;69763;50.182;9.144;2023-08-31T02:43:49;10.93;;;6.28;;
80421;SDS011;69763;50.182;9.144;2023-08-31T02:46:15;11.20;;;5.85;;
80421;SDS011;69763;50.182;9.144;2023-08-31T02:48:40;12.00;;;5.80;;
80421;SDS011;69763;50.182;9.144;2023-08-31T02:51:07;11.18;;;6.00;;
80421;SDS011;69763;50.182;9.144;2023-08-31T02:53:33;9.57;;;5.45;;
80421;SDS011;69763;50.182;9.144;2023-08-31T02:55:59;8.90;;;5.03;;
80421;SDS011;69763;50.182;9.144;2023-08-31T02:58:24;10.93;;;5.47;;
80421;SDS011;69763;50.182;9.144;2023-08-31T03:00:49;10.10;;;5.82;;
80421;SDS011;69763;50.182;9.144;2023-08-31T03:03:15;11.48;;;5.60;;
80421;SDS011;69763;50.182;9.144;2023-08-31T03:05:40;13.38;;;5.60;;
80421;SDS011;69763;50.182;9.144;2023-08-31T03:08:07;11.60;;;5.32;;
80421;SDS011;69763;50.182;9.144;2023-08-31T03:10:33;9.75;;;4.95;;
80421;SDS011;69763;50.182;9.144;2023-08-31T03:12:58;8.57;;;4.55;;
80421;SDS011;69763;50.182;9.144;2023-08-31T03:15:23;10.88;;;5.20;;
80421;SDS011;69763;50.182;9.144;2023-08-31T03:17:49;10.68;;;5.40;;
80421;SDS011;69763;50.182;9.144;2023-08-31T03:20:14;12.95;;;5.05;;
80421;SDS011;69763;50.182;9.144;2023-08-31T03:22:39;11.27;;;5.35;;
80421;SDS011;69763;50.182;9.144;2023-08-31T03:25:06;10.00;;;4.72;;
80421;SDS011;69763;50.182;9.144;2023-08-31T03:27:32;8.52;;;4.60;;
80421;SDS011;69763;50.182;9.144;2023-08-31T03:29:58;7.97;;;4.57;;
80421;SDS011;69763;50.182;9.144;2023-08-31T03:32:23;8.95;;;4.80;;
80421;SDS011;69763;50.182;9.144;2023-08-31T03:34:48;8.02;;;4.43;;
80421;SDS011;69763;50.182;9.144;2023-08-31T03:37:14;7.47;;;4.93;;
80421;SDS011;69763;50.182;9.144;2023-08-31T03:39:39;8.60;;;4.95;;
80421;SDS011;69763;50.182;9.144;2023-08-31T03:42:06;9.65;;;5.28;;
80421;SDS011;69763;50.182;9.144;2023-08-31T03:44:31;8.98;;;5.13;;
80421;SDS011;69763;50.182;9.144;2023-08-31T03:46:57;10.82;;;4.80;;
80421;SDS011;69763;50.182;9.144;2023-08-31T03:49:22;11.30;;;5.05;;
80421;SDS011;69763;50.182;9.144;2023-08-31T03:51:48;11.25;;;5.65;;
80421;SDS011;69763;50.182;9.144;2023-08-31T03:54:13;10.40;;;5.18;;
80421;SDS011;69763;50.182;9.144;2023-08-31T03:56:38;11.65;;;5.47;;
80421;SDS011;69763;50.182;9.144;2023-08-31T03:59:05;7.55;;;4.93;;
80421;SDS011;69763;50.182;9.144;2023-08-31T04:01:31;10.65;;;5.20;;
80421;SDS011;69763;50.182;9.144;2023-08-31T04:03:56;12.50;;;6.00;;
80421;SDS011;69763;50.182;9.144;2023-08-31T04:06:21;11.40;;;5.30;;
80421;SDS011;69763;50.182;9.144;2023-08-31T04:08:47;18.30;;;5.95;;
80421;SDS011;69763;50.182;9.144;2023-08-31T04:11:12;9.27;;;4.85;;
80421;SDS011;69763;50.182;9.144;2023-08-31T04:13:38;10.10;;;5.35;;
80421;SDS011;69763;50.182;9.144;2023-08-31T04:16:04;9.35;;;5.45;;
80421;SDS011;69763;50.182;9.144;2023-08-31T04:18:30;15.27;;;4.88;;
80421;SDS011;69763;50.182;9.144;2023-08-31T04:20:55;12.20;;;6.38;;
80421;SDS011;69763;50.182;9.144;2023-08-31T04:23:21;10.18;;;5.38;;
80421;SDS011;69763;50.182;9.144;2023-08-31T04:25:46;12.10;;;5.63;;
80421;SDS011;69763;50.182;9.144;2023-08-31T04:28:12;11.85;;;5.35;;
80421;SDS011;69763;50.182;9.144;2023-08-31T04:30:38;12.35;;;6.00;;
80421;SDS011;69763;50.182;9.144;2023-08-31T04:35:31;9.18;;;5.25;;
80421;SDS011;69763;50.182;9.144;2023-08-31T04:37:56;10.57;;;5.65;;
80421;SDS011;69763;50.182;9.144;2023-08-31T04:40:21;12.00;;;6.78;;
80421;SDS011;69763;50.182;9.144;2023-08-31T04:42:47;10.30;;;5.97;;
80421;SDS011;69763;50.182;9.144;2023-08-31T04:45:12;10.05;;;5.68;;
80421;SDS011;69763;50.182;9.144;2023-08-31T04:47:38;13.27;;;6.38;;
80421;SDS011;69763;50.182;9.144;2023-08-31T04:50:05;11.63;;;5.63;;
80421;SDS011;69763;50.182;9.144;2023-08-31T04:52:31;9.68;;;5.95;;
80421;SDS011;69763;50.182;9.144;2023-08-31T04:54:57;9.93;;;6.13;;
80421;SDS011;69763;50.182;9.144;2023-08-31T04:57:22;13.43;;;6.25;;
80421;SDS011;69763;50.182;9.144;2023-08-31T04:59:48;13.80;;;6.45;;
80421;SDS011;69763;50.182;9.144;2023-08-31T05:02:13;12.43;;;6.57;;
80421;SDS011;69763;50.182;9.144;2023-08-31T05:04:39;11.88;;;6.63;;
80421;SDS011;69763;50.182;9.144;2023-08-31T05:07:05;11.25;;;6.45;;
80421;SDS011;69763;50.182;9.144;2023-08-31T05:09:31;10.70;;;6.10;;
80421;SDS011;69763;50.182;9.144;2023-08-31T05:11:56;12.70;;;6.82;;
80421;SDS011;69763;50.182;9.144;2023-08-31T05:14:21;11.77;;;6.50;;
80421;SDS011;69763;50.182;9.144;2023-08-31T05:16:47;10.48;;;6.05;;
80421;SDS011;69763;50.182;9.144;2023-08-31T05:19:12;13.60;;;6.80;;
80421;SDS011;69763;50.182;9.144;2023-08-31T05:21:37;10.90;;;6.40;;
80421;SDS011;69763;50.182;9.144;2023-08-31T05:24:04;13.48;;;6.88;;
80421;SDS011;69763;50.182;9.144;2023-08-31T05:26:30;11.88;;;6.95;;
80421;SDS011;69763;50.182;9.144;2023-08-31T05:28:55;16.63;;;7.53;;
80421;SDS011;69763;50.182;9.144;2023-08-31T05:31:21;14.55;;;6.97;;
80421;SDS011;69763;50.182;9.144;2023-08-31T05:33:46;13.48;;;7.05;;
80421;SDS011;69763;50.182;9.144;2023-08-31T05:36:12;13.50;;;7.03;;
80421;SDS011;69763;50.182;9.144;2023-08-31T05:38:37;13.02;;;7.25;;
80421;SDS011;69763;50.182;9.144;2023-08-31T05:41:04;12.32;;;6.93;;
80421;SDS011;69763;50.182;9.144;2023-08-31T05:43:30;15.57;;;7.22;;
80421;SDS011;69763;50.182;9.144;2023-08-31T05:45:56;12.82;;;6.93;;
80421;SDS011;69763;50.182;9.144;2023-08-31T05:48:21;16.27;;;7.32;;
80421;SDS011;69763;50.182;9.144;2023-08-31T05:50:46;12.68;;;7.35;;
80421;SDS011;69763;50.182;9.144;2023-08-31T05:53:12;16.35;;;7.47;;
80421;SDS011;69763;50.182;9.144;2023-08-31T05:55:37;14.45;;;7.85;;
80421;SDS011;69763;50.182;9.144;2023-08-31T05:58:04;15.32;;;7.88;;
80421;SDS011;69763;50.182;9.144;2023-08-31T06:00:30;15.63;;;7.40;;
80421;SDS011;69763;50.182;9.144;2023-08-31T06:02:55;12.82;;;7.00;;
80421;SDS011;69763;50.182;9.144;2023-08-31T06:05:21;13.57;;;7.03;;
80421;SDS011;69763;50.182;9.144;2023-08-31T06:07:46;15.07;;;7.13;;
80421;SDS011;69763;50.182;9.144;2023-08-31T06:10:12;14.88;;;7.38;;
80421;SDS011;69763;50.182;9.144;2023-08-31T06:12:37;15.02;;;6.32;;
80421;SDS011;69763;50.182;9.144;2023-08-31T06:15:04;12.07;;;6.60;;
80421;SDS011;69763;50.182;9.144;2023-08-31T06:17:30;10.52;;;6.32;;
80421;SDS011;69763;50.182;9.144;2023-08-31T06:19:55;10.25;;;6.10;;
80421;SDS011;69763;50.182;9.144;2023-08-31T06:22:21;12.27;;;6.93;;
80421;SDS011;69763;50.182;9.144;2023-08-31T06:24:46;11.18;;;5.32;;
80421;SDS011;69763;50.182;9.144;2023-08-31T06:27:12;11.18;;;5.15;;
80421;SDS011;69763;50.182;9.144;2023-08-31T06:29:37;9.80;;;5.47;;
80421;SDS011;69763;50.182;9.144;2023-08-31T06:32:04;8.63;;;5.05;;
80421;SDS011;69763;50.182;9.144;2023-08-31T06:34:30;11.70;;;5.63;;
80421;SDS011;69763;50.182;9.144;2023-08-31T06:36:55;8.82;;;4.88;;
80421;SDS011;69763;50.182;9.144;2023-08-31T06:39:21;8.63;;;5.32;;
80421;SDS011;69763;50.182;9.144;2023-08-31T06:41:46;8.18;;;5.25;;
80421;SDS011;69763;50.182;9.144;2023-08-31T06:44:12;7.70;;;5.63;;
80421;SDS011;69763;50.182;9.144;2023-08-31T06:46:37;10.48;;;5.05;;
80421;SDS011;69763;50.182;9.144;2023-08-31T06:49:04;8.70;;;4.57;;
80421;SDS011;69763;50.182;9.144;2023-08-31T06:51:29;7.60;;;4.38;;
80421;SDS011;69763;50.182;9.144;2023-08-31T06:53:55;9.35;;;4.43;;
80421;SDS011;69763;50.182;9.144;2023-08-31T06:56:20;6.85;;;4.63;;
80421;SDS011;69763;50.182;9.144;2023-08-31T06:58:45;10.05;;;5.00;;
80421;SDS011;69763;50.182;9.144;2023-08-31T07:01:12;8.27;;;4.15;;
80421;SDS011;69763;50.182;9.144;2023-08-31T07:06:04;7.60;;;4.07;;
80421;SDS011;69763;50.182;9.144;2023-08-31T07:08:29;9.73;;;4.30;;
80421;SDS011;69763;50.182;9.144;2023-08-31T07:10:55;6.95;;;3.70;;
80421;SDS011;69763;50.182;9.144;2023-08-31T07:13:20;8.45;;;4.25;;
80421;SDS011;69763;50.182;9.144;2023-08-31T07:15:45;7.00;;;3.58;;
80421;SDS011;69763;50.182;9.144;2023-08-31T07:18:11;9.40;;;3.83;;
80421;SDS011;69763;50.182;9.144;2023-08-31T07:20:36;7.85;;;4.07;;
80421;SDS011;69763;50.182;9.144;2023-08-31T07:23:03;8.27;;;4.05;;
80421;SDS011;69763;50.182;9.144;2023-08-31T07:25:29;10.60;;;3.50;;
80421;SDS011;69763;50.182;9.144;2023-08-31T07:27:54;5.90;;;3.25;;
80421;SDS011;69763;50.182;9.144;2023-08-31T07:30:19;8.13;;;3.75;;
80421;SDS011;69763;50.182;9.144;2023-08-31T07:32:45;8.40;;;3.50;;
80421;SDS011;69763;50.182;9.144;2023-08-31T07:35:10;9.52;;;3.58;;
80421;SDS011;69763;50.182;9.144;2023-08-31T07:37:36;8.10;;;3.28;;
80421;SDS011;69763;50.182;9.144;2023-08-31T07:40:03;6.00;;;3.33;;
80421;SDS011;69763;50.182;9.144;2023-08-31T07:42:29;7.15;;;3.78;;
80421;SDS011;69763;50.182;9.144;2023-08-31T07:44:55;7.43;;;3.20;;
80421;SDS011;69763;50.182;9.144;2023-08-31T07:47:20;9.98;;;3.70;;
80421;SDS011;69763;50.182;9.144;2023-08-31T07:49:45;7.75;;;3.38;;
80421;SDS011;69763;50.182;9.144;2023-08-31T07:52:11;5.72;;;3.05;;
80421;SDS011;69763;50.182;9.144;2023-08-31T07:54:36;6.32;;;3.15;;
80421;SDS011;69763;50.182;9.144;2023-08-31T07:57:03;6.07;;;3.38;;
80421;SDS011;69763;50.182;9.144;2023-08-31T07:59:29;6.53;;;2.88;;
80421;SDS011;69763;50.182;9.144;2023-08-31T08:01:54;6.82;;;3.35;;
80421;SDS011;69763;50.182;9.144;2023-08-31T08:04:19;6.72;;;3.33;;
80421;SDS011;69763;50.182;9.144;2023-08-31T08:06:45;6.15;;;3.05;;
80421;SDS011;69763;50.182;9.144;2023-08-31T08:09:10;4.82;;;3.00;;
80421;SDS011;69763;50.182;9.144;2023-08-31T08:11:35;6.95;;;3.30;;
80421;SDS011;69763;50.182;9.144;2023-08-31T08:14:02;6.95;;;2.80;;
80421;SDS011;69763;50.182;9.144;2023-08-31T08:16:29;5.43;;;2.55;;
80421;SDS011;69763;50.182;9.144;2023-08-31T08:18:54;4.97;;;2.55;;
80421;SDS011;69763;50.182;9.144;2023-08-31T08:21:20;8.00;;;2.72;;
80421;SDS011;69763;50.182;9.144;2023-08-31T08:23:45;9.13;;;3.15;;
80421;SDS011;69763;50.182;9.144;2023-08-31T08:26:11;6.28;;;2.72;;
80421;SDS011;69763;50.182;9.144;2023-08-31T08:28:36;4.45;;;2.90;;
80421;SDS011;69763;50.182;9.144;2023-08-31T08:31:03;9.43;;;2.97;;
80421;SDS011;69763;50.182;9.144;2023-08-31T08:33:28;6.88;;;3.22;;
80421;SDS011;69763;50.182;9.144;2023-08-31T08:35:55;8.90;;;2.95;;
80421;SDS011;69763;50.182;9.144;2023-08-31T08:38:21;6.07;;;2.70;;
80421;SDS011;69763;50.182;9.144;2023-08-31T08:40:46;7.53;;;2.90;;
80421;SDS011;69763;50.182;9.144;2023-08-31T08:43:12;5.68;;;2.45;;
80421;SDS011;69763;50.182;9.144;2023-08-31T08:45:38;10.02;;;2.92;;
80421;SDS011;69763;50.182;9.144;2023-08-31T08:48:06;4.05;;;2.33;;
80421;SDS011;69763;50.182;9.144;2023-08-31T08:50:33;6.32;;;2.78;;
80421;SDS011;69763;50.182;9.144;2023-08-31T08:52:59;5.88;;;2.55;;
80421;SDS011;69763;50.182;9.144;2023-08-31T08:55:25;5.68;;;2.42;;
80421;SDS011;69763;50.182;9.144;2023-08-31T08:57:50;4.85;;;2.60;;
80421;SDS011;69763;50.182;9.144;2023-08-31T09:00:16;6.50;;;2.25;;
80421;SDS011;69763;50.182;9.144;2023-08-31T09:02:41;5.05;;;2.55;;
80421;SDS011;69763;50.182;9.144;2023-08-31T09:05:08;4.57;;;2.53;;
80421;SDS011;69763;50.182;9.144;2023-08-31T09:07:34;5.35;;;2.72;;
80421;SDS011;69763;50.182;9.144;2023-08-31T09:10:00;5.32;;;2.47;;
80421;SDS011;69763;50.182;9.144;2023-08-31T09:12:25;4.18;;;2.35;;
80421;SDS011;69763;50.182;9.144;2023-08-31T09:14:57;6.43;;;1.98;;
80421;SDS011;69763;50.182;9.144;2023-08-31T09:17:23;2.78;;;1.95;;
80421;SDS011;69763;50.182;9.144;2023-08-31T09:19:57;5.95;;;2.40;;
80421;SDS011;69763;50.182;9.144;2023-08-31T09:22:25;4.53;;;2.20;;
80421;SDS011;69763;50.182;9.144;2023-08-31T09:24:50;4.95;;;2.00;;
80421;SDS011;69763;50.182;9.144;2023-08-31T09:27:16;7.45;;;2.65;;
80421;SDS011;69763;50.182;9.144;2023-08-31T09:29:45;3.10;;;2.30;;
80421;SDS011;69763;50.182;9.144;2023-08-31T09:32:11;5.68;;;2.45;;
80421;SDS011;69763;50.182;9.144;2023-08-31T09:34:41;4.85;;;2.17;;
80421;SDS011;69763;50.182;9.144;2023-08-31T09:37:07;7.07;;;2.30;;
80421;SDS011;69763;50.182;9.144;2023-08-31T09:39:36;3.50;;;2.10;;
80421;SDS011;69763;50.182;9.144;2023-08-31T09:42:02;4.85;;;2.35;;
80421;SDS011;69763;50.182;9.144;2023-08-31T09:44:28;5.53;;;2.20;;
80421;SDS011;69763;50.182;9.144;2023-08-31T09:46:53;6.28;;;2.20;;
80421;SDS011;69763;50.182;9.144;2023-08-31T09:49:19;8.13;;;2.30;;
80421;SDS011;69763;50.182;9.144;2023-08-31T09:51:46;4.50;;;2.00;;
80421;SDS011;69763;50.182;9.144;2023-08-31T09:54:13;7.20;;;2.55;;
80421;SDS011;69763;50.182;9.144;2023-08-31T09:56:42;6.70;;;2.30;;
80421;SDS011;69763;50.182;9.144;2023-08-31T09:59:08;7.05;;;2.35;;
80421;SDS011;69763;50.182;9.144;2023-08-31T10:01:35;5.32;;;2.22;;
80421;SDS011;69763;50.182;9.144;2023-08-31T10:04:00;8.10;;;2.13;;
80421;SDS011;69763;50.182;9.144;2023-08-31T10:06:27;7.57;;;2.00;;
80421;SDS011;69763;50.182;9.144;2023-08-31T10:08:53;4.22;;;2.22;;
80421;SDS011;69763;50.182;9.144;2023-08-31T10:11:18;6.18;;;2.20;;
80421;SDS011;69763;50.182;9.144;2023-08-31T10:13:45;8.02;;;3.03;;
80421;SDS011;69763;50.182;9.144;2023-08-31T10:16:13;5.30;;;2.10;;
80421;SDS011;69763;50.182;9.144;2023-08-31T10:18:39;6.18;;;2.25;;
80421;SDS011;69763;50.182;9.144;2023-08-31T10:21:05;7.82;;;2.10;;
80421;SDS011;69763;50.182;9.144;2023-08-31T10:23:30;6.15;;;2.33;;
80421;SDS011;69763;50.182;9.144;2023-08-31T10:26:00;4.88;;;2.15;;
80421;SDS011;69763;50.182;9.144;2023-08-31T10:28:27;6.90;;;2.22;;
80421;SDS011;69763;50.182;9.144;2023-08-31T10:35:56;5.22;;;2.28;;
80421;SDS011;69763;50.182;9.144;2023-08-31T10:38:26;6.25;;;2.17;;
80421;SDS011;69763;50.182;9.144;2023-08-31T10:40:59;7.43;;;2.45;;
80421;SDS011;69763;50.182;9.144;2023-08-31T10:43:26;3.63;;;2.20;;
80421;SDS011;69763;50.182;9.144;2023-08-31T10:45:51;8.68;;;2.42;;
80421;SDS011;69763;50.182;9.144;2023-08-31T10:48:18;6.22;;;2.30;;
80421;SDS011;69763;50.182;9.144;2023-08-31T10:50:44;6.10;;;2.35;;
80421;SDS011;69763;50.182;9.144;2023-08-31T10:53:11;5.28;;;2.30;;
80421;SDS011;69763;50.182;9.144;2023-08-31T10:55:47;6.03;;;2.55;;
80421;SDS011;69763;50.182;9.144;2023-08-31T10:58:15;5.05;;;2.45;;
80421;SDS011;69763;50.182;9.144;2023-08-31T11:00:45;8.23;;;2.05;;
80421;SDS011;69763;50.182;9.144;2023-08-31T11:03:12;6.50;;;2.65;;
80421;SDS011;69763;50.182;9.144;2023-08-31T11:05:51;6.68;;;2.40;;
80421;SDS011;69763;50.182;9.144;2023-08-31T11:08:20;4.93;;;2.10;;
80421;SDS011;69763;50.182;9.144;2023-08-31T11:10:46;6.82;;;2.30;;
80421;SDS011;69763;50.182;9.144;2023-08-31T11:13:15;4.28;;;2.33;;
80421;SDS011;69763;50.182;9.144;2023-08-31T11:15:45;4.00;;;2.20;;
80421;SDS011;69763;50.182;9.144;2023-08-31T11:18:11;5.00;;;2.13;;
80421;SDS011;69763;50.182;9.144;2023-08-31T11:20:37;5.88;;;2.25;;
80421;SDS011;69763;50.182;9.144;2023-08-31T11:23:04;5.43;;;1.80;;
80421;SDS011;69763;50.182;9.144;2023-08-31T11:25:30;4.43;;;2.28;;
80421;SDS011;69763;50.182;9.144;2023-08-31T11:27:56;8.20;;;2.60;;
80421;SDS011;69763;50.182;9.144;2023-08-31T11:30:22;5.63;;;2.30;;
80421;SDS011;69763;50.182;9.144;2023-08-31T11:32:50;5.40;;;2.55;;
80421;SDS011;69763;50.182;9.144;2023-08-31T11:35:16;3.85;;;1.80;;
80421;SDS011;69763;50.182;9.144;2023-08-31T11:37:42;3.85;;;2.00;;
80421;SDS011;69763;50.182;9.144;2023-08-31T11:42:35;8.23;;;1.80;;
80421;SDS011;69763;50.182;9.144;2023-08-31T11:45:00;7.53;;;2.38;;
80421;SDS011;69763;50.182;9.144;2023-08-31T11:47:26;2.75;;;1.52;;
80421;SDS011;69763;50.182;9.144;2023-08-31T11:49:52;6.63;;;2.05;;
80421;SDS011;69763;50.182;9.144;2023-08-31T11:52:18;3.65;;;2.03;;
80421;SDS011;69763;50.182;9.144;2023-08-31T11:54:44;6.25;;;1.98;;
80421;SDS011;69763;50.182;9.144;2023-08-31T11:57:10;5.25;;;2.00;;
80421;SDS011;69763;50.182;9.144;2023-08-31T11:59:36;5.22;;;2.25;;
80421;SDS011;69763;50.182;9.144;2023-08-31T12:02:05;6.38;;;2.20;;
80421;SDS011;69763;50.182;9.144;2023-08-31T12:04:30;5.18;;;2.15;;
80421;SDS011;69763;50.182;9.144;2023-08-31T12:07:00;5.15;;;2.20;;
80421;SDS011;69763;50.182;9.144;2023-08-31T12:09:27;5.07;;;2.08;;
80421;SDS011;69763;50.182;9.144;2023-08-31T12:11:52;6.90;;;3.72;;
80421;SDS011;69763;50.182;9.144;2023-08-31T12:14:20;4.85;;;2.40;;
80421;SDS011;69763;50.182;9.144;2023-08-31T12:16:46;4.18;;;2.28;;
80421;SDS011;69763;50.182;9.144;2023-08-31T12:19:12;3.22;;;2.03;;
80421;SDS011;69763;50.182;9.144;2023-08-31T12:21:37;4.30;;;2.10;;
80421;SDS011;69763;50.182;9.144;2023-08-31T12:24:04;5.65;;;2.47;;
80421;SDS011;69763;50.182;9.144;2023-08-31T12:26:30;4.20;;;1.90;;
80421;SDS011;69763;50.182;9.144;2023-08-31T12:28:55;6.20;;;2.83;;
80421;SDS011;69763;50.182;9.144;2023-08-31T12:31:22;3.15;;;1.95;;
80421;SDS011;69763;50.182;9.144;2023-08-31T12:33:48;4.10;;;1.90;;
80421;SDS011;69763;50.182;9.144;2023-08-31T12:36:13;3.42;;;1.90;;
80421;SDS011;69763;50.182;9.144;2023-08-31T12:38:39;5.00;;;1.98;;
80421;SDS011;69763;50.182;9.144;2023-08-31T12:41:05;4.30;;;2.30;;
80421;SDS011;69763;50.182;9.144;2023-08-31T12:43:30;3.20;;;1.92;;
80421;SDS011;69763;50.182;9.144;2023-08-31T12:45:55;5.82;;;2.33;;
80421;SDS011;69763;50.182;9.144;2023-08-31T12:48:22;5.93;;;1.88;;
80421;SDS011;69763;50.182;9.144;2023-08-31T12:50:48;3.00;;;1.70;;
80421;SDS011;69763;50.182;9.144;2023-08-31T12:53:13;3.40;;;2.08;;
80421;SDS011;69763;50.182;9.144;2023-08-31T12:55:38;4.30;;;1.77;;
80421;SDS011;69763;50.182;9.144;2023-08-31T12:58:04;5.28;;;2.22;;
80421;SDS011;69763;50.182;9.144;2023-08-31T13:00:29;4.15;;;1.83;;
80421;SDS011;69763;50.182;9.144;2023-08-31T13:02:55;6.72;;;2.38;;
80421;SDS011;69763;50.182;9.144;2023-08-31T13:05:21;5.30;;;2.05;;
80421;SDS011;69763;50.182;9.144;2023-08-31T13:07:47;2.50;;;1.80;;
80421;SDS011;69763;50.182;9.144;2023-08-31T13:10:12;4.03;;;2.05;;
80421;SDS011;69763;50.182;9.144;2023-08-31T13:12:38;4.78;;;1.90;;
80421;SDS011;69763;50.182;9.144;2023-08-31T13:15:04;5.30;;;2.08;;
80421;SDS011;69763;50.182;9.144;2023-08-31T13:19:55;5.03;;;1.50;;
80421;SDS011;69763;50.182;9.144;2023-08-31T13:24:48;3.20;;;1.60;;
80421;SDS011;69763;50.182;9.144;2023-08-31T13:27:13;3.25;;;2.03;;
80421;SDS011;69763;50.182;9.144;2023-08-31T13:29:38;5.15;;;1.85;;
80421;SDS011;69763;50.182;9.144;2023-08-31T13:32:04;3.97;;;1.50;;
80421;SDS011;69763;50.182;9.144;2023-08-31T13:34:30;3.22;;;1.95;;
80421;SDS011;69763;50.182;9.144;2023-08-31T13:36:55;3.80;;;1.90;;
80421;SDS011;69763;50.182;9.144;2023-08-31T13:39:22;4.22;;;1.90;;
80421;SDS011;69763;50.182;9.144;2023-08-31T13:41:47;5.72;;;2.00;;
80421;SDS011;69763;50.182;9.144;2023-08-31T13:44:13;4.10;;;1.55;;
80421;SDS011;69763;50.182;9.144;2023-08-31T13:46:38;3.63;;;1.95;;
80421;SDS011;69763;50.182;9.144;2023-08-31T13:49:04;4.55;;;2.10;;
80421;SDS011;69763;50.182;9.144;2023-08-31T13:51:29;2.85;;;1.70;;
80421;SDS011;69763;50.182;9.144;2023-08-31T13:53:54;5.88;;;2.17;;
80421;SDS011;69763;50.182;9.144;2023-08-31T13:56:21;4.47;;;1.90;;
80421;SDS011;69763;50.182;9.144;2023-08-31T13:58:47;4.85;;;1.90;;
80421;SDS011;69763;50.182;9.144;2023-08-31T14:03:38;3.57;;;1.97;;
80421;SDS011;69763;50.182;9.144;2023-08-31T14:06:03;4.03;;;1.95;;
80421;SDS011;69763;50.182;9.144;2023-08-31T14:08:29;4.13;;;1.60;;
80421;SDS011;69763;50.182;9.144;2023-08-31T14:10:54;3.30;;;1.80;;
80421;SDS011;69763;50.182;9.144;2023-08-31T14:13:21;4.10;;;1.77;;
80421;SDS011;69763;50.182;9.144;2023-08-31T14:15:47;3.17;;;1.73;;
80421;SDS011;69763;50.182;9.144;2023-08-31T14:18:12;5.15;;;1.80;;
80421;SDS011;69763;50.182;9.144;2023-08-31T14:20:38;4.95;;;1.92;;
80421;SDS011;69763;50.182;9.144;2023-08-31T14:23:03;4.38;;;1.85;;
80421;SDS011;69763;50.182;9.144;2023-08-31T14:25:29;5.88;;;2.05;;
80421;SDS011;69763;50.182;9.144;2023-08-31T14:27:59;4.28;;;2.05;;
80421;SDS011;69763;50.182;9.144;2023-08-31T14:30:25;5.07;;;1.80;;
80421;SDS011;69763;50.182;9.144;2023-08-31T14:32:51;3.85;;;2.00;;
80421;SDS011;69763;50.182;9.144;2023-08-31T14:35:16;7.38;;;2.00;;
80421;SDS011;69763;50.182;9.144;2023-08-31T14:37:42;6.95;;;2.22;;
80421;SDS011;69763;50.182;9.144;2023-08-31T14:40:07;3.35;;;1.90;;
80421;SDS011;69763;50.182;9.144;2023-08-31T14:42:33;3.78;;;1.85;;
80421;SDS011;69763;50.182;9.144;2023-08-31T14:44:59;3.65;;;2.20;;
80421;SDS011;69763;50.182;9.144;2023-08-31T14:47:25;3.75;;;2.05;;
80421;SDS011;69763;50.182;9.144;2023-08-31T14:49:51;5.90;;;2.45;;
80421;SDS011;69763;50.182;9.144;2023-08-31T14:52:16;5.93;;;2.10;;
80421;SDS011;69763;50.182;9.144;2023-08-31T14:54:42;3.30;;;1.80;;
80421;SDS011;69763;50.182;9.144;2023-08-31T14:57:07;4.88;;;2.30;;
80421;SDS011;69763;50.182;9.144;2023-08-31T14:59:32;5.95;;;2.40;;
80421;SDS011;69763;50.182;9.144;2023-08-31T15:01:58;6.22;;;2.00;;